Time,TemperatureF,DewpointF,PressureIn,WindDirection,WindDirectionDegrees,WindSpeedMPH,WindSpeedGustMPH,Humidity,HourlyPrecipIn,Conditions,Clouds,dailyrainin,SoftwareType,DateUTC
2013-09-04 00:09:00,57.4,56.8,29.81,SSE,157,0.0,-999.0,98,-99.99,,,0.00,Acu-Link.com,2013-09-04 04:09:00,
2013-09-04 00:25:00,57.2,56.6,29.81,ESE,112,0.0,-999.0,98,-99.99,,,0.01,Acu-Link.com,2013-09-04 04:25:00,
2013-09-04 00:40:00,57.0,56.5,29.82,SSE,157,1.1,-999.0,98,-99.99,,,0.01,Acu-Link.com,2013-09-04 04:40:00,
2013-09-04 00:55:00,56.5,55.9,29.82,WSW,247,0.0,-999.0,98,-99.99,,,0.01,Acu-Link.com,2013-09-04 04:55:00,
2013-09-04 01:10:00,56.3,55.7,29.83,SSW,202,0.0,-999.0,98,-99.99,,,0.01,Acu-Link.com,2013-09-04 05:10:00,
2013-09-04 01:25:00,56.1,55.6,29.83,South,180,0.0,-999.0,98,-99.99,,,0.01,Acu-Link.com,2013-09-04 05:25:00,
2013-09-04 01:41:00,56.1,55.6,29.83,North,0,0.0,-999.0,98,-99.99,,,0.01,Acu-Link.com,2013-09-04 05:41:00,
2013-09-04 01:56:00,55.8,55.2,29.83,North,0,0.0,-999.0,98,-99.99,,,0.01,Acu-Link.com,2013-09-04 05:56:00,
2013-09-04 02:11:00,55.0,54.5,29.82,North,0,0.0,-999.0,98,-99.99,,,0.01,Acu-Link.com,2013-09-04 06:11:00,
2013-09-04 02:26:00,54.9,54.3,29.83,North,0,0.0,-999.0,98,-99.99,,,0.02,Acu-Link.com,2013-09-04 06:26:00,
2013-09-04 02:41:00,54.5,53.9,29.83,North,0,0.0,-999.0,98,-99.99,,,0.02,Acu-Link.com,2013-09-04 06:41:00,
2013-09-04 02:57:00,54.3,53.8,29.83,North,0,0.0,-999.0,98,-99.99,,,0.02,Acu-Link.com,2013-09-04 06:57:00,
2013-09-04 03:12:00,54.1,53.6,29.83,North,0,0.0,-999.0,98,-99.99,,,0.02,Acu-Link.com,2013-09-04 07:12:00,
2013-09-04 03:27:00,54.5,53.9,29.83,North,0,0.0,-999.0,98,-99.99,,,0.02,Acu-Link.com,2013-09-04 07:27:00,
2013-09-04 03:42:00,54.9,54.3,29.83,North,0,0.0,-999.0,98,-99.99,,,0.02,Acu-Link.com,2013-09-04 07:42:00,
2013-09-04 03:57:00,54.7,54.1,29.83,North,0,0.0,-999.0,98,-99.99,,,0.02,Acu-Link.com,2013-09-04 07:57:00,
2013-09-04 04:14:00,54.5,53.9,29.83,North,0,0.0,-999.0,98,-99.99,,,0.02,Acu-Link.com,2013-09-04 08:14:00,
2013-09-04 04:29:00,54.1,53.6,29.83,North,0,0.0,-999.0,98,-99.99,,,0.02,Acu-Link.com,2013-09-04 08:29:00,
2013-09-04 04:44:00,54.0,53.4,29.83,North,0,0.0,-999.0,98,-99.99,,,0.02,Acu-Link.com,2013-09-04 08:44:00,
2013-09-04 04:59:00,53.6,53.0,29.83,North,0,0.0,-999.0,98,-99.99,,,0.02,Acu-Link.com,2013-09-04 08:59:00,
2013-09-04 05:14:00,53.4,52.9,29.82,North,0,0.0,-999.0,98,-99.99,,,0.02,Acu-Link.com,2013-09-04 09:14:00,
2013-09-04 05:29:00,53.2,52.7,29.83,North,0,0.0,-999.0,98,-99.99,,,0.02,Acu-Link.com,2013-09-04 09:29:00,
2013-09-04 05:44:00,52.7,52.2,29.82,North,0,0.0,-999.0,98,-99.99,,,0.04,Acu-Link.com,2013-09-04 09:44:00,
2013-09-04 06:00:00,52.5,52.0,29.82,North,0,0.0,-999.0,98,-99.99,,,0.04,Acu-Link.com,2013-09-04 10:00:00,
2013-09-04 06:15:00,52.9,52.3,29.81,North,0,0.0,-999.0,98,-99.99,,,0.04,Acu-Link.com,2013-09-04 10:15:00,
2013-09-04 06:30:00,53.1,52.5,29.82,North,0,0.0,-999.0,98,-99.99,,,0.04,Acu-Link.com,2013-09-04 10:30:00,
2013-09-04 06:45:00,53.2,52.7,29.82,North,0,0.0,-999.0,98,-99.99,,,0.04,Acu-Link.com,2013-09-04 10:45:00,
2013-09-04 07:00:00,53.6,53.0,29.82,North,0,0.0,-999.0,98,-99.99,,,0.04,Acu-Link.com,2013-09-04 11:00:00,
2013-09-04 07:16:00,53.8,53.2,29.82,North,0,0.0,-999.0,98,-99.99,,,0.04,Acu-Link.com,2013-09-04 11:16:00,
2013-09-04 07:31:00,54.1,53.6,29.82,North,0,0.0,-999.0,98,-99.99,,,0.04,Acu-Link.com,2013-09-04 11:31:00,
2013-09-04 07:46:00,54.9,54.3,29.83,South,180,1.1,-999.0,98,-99.99,,,0.04,Acu-Link.com,2013-09-04 11:46:00,
2013-09-04 08:01:00,55.8,55.2,29.83,SW,225,0.0,-999.0,98,-99.99,,,0.05,Acu-Link.com,2013-09-04 12:01:00,
2013-09-04 08:16:00,56.1,55.6,29.83,SW,225,0.0,-999.0,98,-99.99,,,0.05,Acu-Link.com,2013-09-04 12:16:00,
2013-09-04 08:32:00,56.3,55.7,29.84,SE,135,0.0,-999.0,98,-99.99,,,0.05,Acu-Link.com,2013-09-04 12:32:00,
2013-09-04 08:47:00,56.7,56.1,29.84,SSW,202,0.0,-999.0,98,-99.99,,,0.05,Acu-Link.com,2013-09-04 12:47:00,
2013-09-04 09:02:00,57.2,56.6,29.85,SSW,202,2.7,-999.0,98,-99.99,,,0.05,Acu-Link.com,2013-09-04 13:02:00,
2013-09-04 10:08:00,58.1,56.1,29.85,ESE,112,1.6,-999.0,93,-99.99,,,0.05,Acu-Link.com,2013-09-04 14:08:00,
2013-09-04 10:23:00,58.6,56.3,29.88,South,180,2.2,-999.0,92,-99.99,,,0.05,Acu-Link.com,2013-09-04 14:23:00,
2013-09-04 10:38:00,58.8,56.2,29.88,SE,135,0.0,-999.0,91,-99.99,,,0.05,Acu-Link.com,2013-09-04 14:38:00,
2013-09-04 10:53:00,58.8,56.2,29.89,SW,225,1.1,-999.0,91,-99.99,,,0.05,Acu-Link.com,2013-09-04 14:53:00,
2013-09-04 11:14:00,58.5,56.1,29.89,SSW,202,1.6,-999.0,92,-99.99,,,0.05,Acu-Link.com,2013-09-04 15:14:00,
2013-09-04 11:29:00,58.5,56.4,29.89,South,180,0.0,-999.0,93,-99.99,,,0.05,Acu-Link.com,2013-09-04 15:29:00,
2013-09-04 11:44:00,58.3,56.3,29.90,South,180,1.1,-999.0,93,-99.99,,,0.05,Acu-Link.com,2013-09-04 15:44:00,
2013-09-04 12:00:00,58.3,57.1,29.90,WSW,247,0.0,-999.0,96,-99.99,,,0.06,Acu-Link.com,2013-09-04 16:00:00,
2013-09-04 12:15:00,58.3,57.4,29.91,WSW,247,1.1,-999.0,97,-99.99,,,0.06,Acu-Link.com,2013-09-04 16:15:00,
2013-09-04 12:30:00,58.3,56.6,29.90,South,180,0.0,-999.0,94,-99.99,,,0.06,Acu-Link.com,2013-09-04 16:30:00,
2013-09-04 12:45:00,58.1,56.1,29.91,SW,225,0.0,-999.0,93,-99.99,,,0.06,Acu-Link.com,2013-09-04 16:45:00,
2013-09-04 13:01:00,57.6,57.0,29.91,East,90,0.0,-999.0,98,-99.99,,,0.06,Acu-Link.com,2013-09-04 17:01:00,
2013-09-04 13:16:00,57.4,56.8,29.92,SSW,202,0.0,-999.0,98,-99.99,,,0.06,Acu-Link.com,2013-09-04 17:16:00,
2013-09-04 13:31:00,57.6,57.0,29.92,SSW,202,0.0,-999.0,98,-99.99,,,0.06,Acu-Link.com,2013-09-04 17:31:00,
2013-09-04 13:46:00,58.8,58.3,29.92,SSW,202,0.0,-999.0,98,-99.99,,,0.06,Acu-Link.com,2013-09-04 17:46:00,
2013-09-04 14:01:00,58.3,55.7,29.92,SSW,202,0.0,-999.0,91,-99.99,,,0.06,Acu-Link.com,2013-09-04 18:01:00,
2013-09-04 14:17:00,57.7,54.5,29.93,SW,225,2.7,-999.0,89,-99.99,,,0.06,Acu-Link.com,2013-09-04 18:17:00,
2013-09-04 14:32:00,57.0,53.8,29.94,South,180,3.8,-999.0,89,-99.99,,,0.07,Acu-Link.com,2013-09-04 18:32:00,
2013-09-04 14:47:00,57.4,53.9,29.94,SSE,157,0.0,-999.0,88,-99.99,,,0.07,Acu-Link.com,2013-09-04 18:47:00,
2013-09-04 15:02:00,59.2,54.7,29.94,SSW,202,2.2,-999.0,85,-99.99,,,0.07,Acu-Link.com,2013-09-04 19:02:00,
2013-09-04 15:17:00,59.9,55.1,29.93,WSW,247,0.0,-999.0,84,-99.99,,,0.07,Acu-Link.com,2013-09-04 19:17:00,
2013-09-04 15:33:00,60.4,53.5,29.93,SSE,157,2.2,-999.0,78,-99.99,,,0.07,Acu-Link.com,2013-09-04 19:33:00,
2013-09-04 15:48:00,61.0,54.1,29.93,ESE,112,0.0,-999.0,78,-99.99,,,0.07,Acu-Link.com,2013-09-04 19:48:00,
2013-09-04 16:03:00,61.3,53.3,29.93,ESE,112,1.6,-999.0,75,-99.99,,,0.07,Acu-Link.com,2013-09-04 20:03:00,
2013-09-04 16:18:00,61.3,51.9,29.93,South,180,1.1,-999.0,71,-99.99,,,0.07,Acu-Link.com,2013-09-04 20:18:00,
2013-09-04 16:33:00,61.2,51.3,29.93,SE,135,0.0,-999.0,70,-99.99,,,0.07,Acu-Link.com,2013-09-04 20:33:00,
2013-09-04 16:49:00,60.8,50.6,29.93,North,0,1.1,-999.0,69,-99.99,,,0.07,Acu-Link.com,2013-09-04 20:49:00,
2013-09-04 17:04:00,60.4,49.0,29.92,SE,135,0.0,-999.0,66,-99.99,,,0.07,Acu-Link.com,2013-09-04 21:04:00,
2013-09-04 17:19:00,60.1,49.1,29.92,SSW,202,2.7,-999.0,67,-99.99,,,0.07,Acu-Link.com,2013-09-04 21:19:00,
2013-09-04 17:34:00,59.9,49.3,29.92,ESE,112,2.7,-999.0,68,-99.99,,,0.07,Acu-Link.com,2013-09-04 21:34:00,
2013-09-04 17:50:00,59.4,48.8,29.93,ESE,112,0.0,-999.0,68,-99.99,,,0.07,Acu-Link.com,2013-09-04 21:50:00,
2013-09-04 18:05:00,58.6,48.5,29.93,SE,135,0.0,-999.0,69,-99.99,,,0.07,Acu-Link.com,2013-09-04 22:05:00,
2013-09-04 18:20:00,58.1,48.0,29.93,South,180,2.7,-999.0,69,-99.99,,,0.07,Acu-Link.com,2013-09-04 22:20:00,
2013-09-04 18:35:00,57.6,48.2,29.92,SE,135,0.0,-999.0,71,-99.99,,,0.07,Acu-Link.com,2013-09-04 22:35:00,
2013-09-04 18:50:00,56.8,50.1,29.93,NNW,337,0.0,-999.0,78,-99.99,,,0.07,Acu-Link.com,2013-09-04 22:50:00,
2013-09-04 19:06:00,55.9,49.2,29.94,NNW,337,0.0,-999.0,78,-99.99,,,0.07,Acu-Link.com,2013-09-04 23:06:00,
2013-09-04 19:21:00,55.6,48.5,29.95,SSE,157,0.0,-999.0,77,-99.99,,,0.07,Acu-Link.com,2013-09-04 23:21:00,
2013-09-04 19:36:00,54.9,48.1,29.95,ESE,112,0.0,-999.0,78,-99.99,,,0.07,Acu-Link.com,2013-09-04 23:36:00,
2013-09-04 19:51:00,54.3,49.3,29.94,ESE,112,0.0,-999.0,83,-99.99,,,0.07,Acu-Link.com,2013-09-04 23:51:00,
2013-09-04 20:06:00,53.6,48.2,29.95,ESE,112,0.0,-999.0,82,-99.99,,,0.07,Acu-Link.com,2013-09-05 00:06:00,
2013-09-04 20:22:00,52.7,48.6,29.95,ESE,112,0.0,-999.0,86,-99.99,,,0.07,Acu-Link.com,2013-09-05 00:22:00,
2013-09-04 20:37:00,52.2,48.1,29.97,SSW,202,0.0,-999.0,86,-99.99,,,0.07,Acu-Link.com,2013-09-05 00:37:00,
2013-09-04 20:52:00,52.2,47.5,29.97,SSE,157,0.0,-999.0,84,-99.99,,,0.07,Acu-Link.com,2013-09-05 00:52:00,
2013-09-04 21:07:00,52.0,47.3,29.98,SW,225,0.0,-999.0,84,-99.99,,,0.07,Acu-Link.com,2013-09-05 01:07:00,
2013-09-04 21:22:00,51.6,47.9,29.98,ESE,112,0.0,-999.0,87,-99.99,,,0.07,Acu-Link.com,2013-09-05 01:22:00,
2013-09-04 21:38:00,51.4,47.1,29.97,ESE,112,0.0,-999.0,85,-99.99,,,0.07,Acu-Link.com,2013-09-05 01:38:00,
2013-09-04 21:53:00,51.4,46.5,29.98,ESE,112,0.0,-999.0,83,-99.99,,,0.07,Acu-Link.com,2013-09-05 01:53:00,
2013-09-04 22:08:00,51.4,46.1,29.97,SSW,202,2.7,-999.0,82,-99.99,,,0.07,Acu-Link.com,2013-09-05 02:08:00,
2013-09-04 22:23:00,51.1,45.8,29.97,SSW,202,2.2,-999.0,82,-99.99,,,0.07,Acu-Link.com,2013-09-05 02:23:00,
2013-09-04 22:38:00,50.7,46.1,29.98,WSW,247,1.1,-999.0,84,-99.99,,,0.07,Acu-Link.com,2013-09-05 02:38:00,
2013-09-04 22:53:00,50.2,45.2,29.98,SSW,202,0.0,-999.0,83,-99.99,,,0.07,Acu-Link.com,2013-09-05 02:53:00,
2013-09-04 23:09:00,49.8,45.2,29.98,SW,225,0.0,-999.0,84,-99.99,,,0.07,Acu-Link.com,2013-09-05 03:09:00,
2013-09-04 23:24:00,49.6,45.3,29.97,WSW,247,0.0,-999.0,85,-99.99,,,0.07,Acu-Link.com,2013-09-05 03:24:00,
2013-09-04 23:39:00,49.3,45.0,29.98,SSE,157,0.0,-999.0,85,-99.99,,,0.07,Acu-Link.com,2013-09-05 03:39:00,
2013-09-04 23:54:00,49.1,44.5,29.98,West,270,0.0,-999.0,84,-99.99,,,0.07,Acu-Link.com,2013-09-05 03:54:00,